Time;durP1;ratioP1;P1;durP2;ratioP2;P2;SDS_P1;SDS_P2;PMS_P1;PMS_P2;Temp;Humidity;BMP_temperature;BMP_pressure;BME280_temperature;BME280_humidity;BME280_pressure;Samples;Min_cycle;Max_cycle;Signal;HPM_P1;HPM_P2
2021/10/05 00:01:15;;;;;;;;;;;24.90;43.60;;;;;;456720;261;1309;-72
2021/10/05 00:03:16;;;;;;;;;;;24.90;43.70;;;;;;456790;260;1139;-72
2021/10/05 00:05:17;;;;;;;;;;;24.90;43.50;;;;;;456742;260;984;-72
2021/10/05 00:07:19;;;;;;;;;;;25.00;43.60;;;;;;456468;260;1171;-72
2021/10/05 00:09:20;;;;;;;;;;;24.90;43.50;;;;;;456740;260;2198;-73
2021/10/05 00:11:21;;;;;;;;;;;24.70;43.90;;;;;;456573;260;1213;-72
2021/10/05 00:13:23;;;;;;;;;;;24.80;43.80;;;;;;456750;260;1076;-72
2021/10/05 00:15:24;;;;;;;;;;;24.90;43.70;;;;;;456700;260;971;-72
2021/10/05 00:17:25;;;;;;;;;;;24.90;43.70;;;;;;456701;260;1170;-72
2021/10/05 00:19:27;;;;;;;;;;;25.00;43.50;;;;;;456796;260;964;-72
2021/10/05 00:21:28;;;;;;;;;;;24.80;43.90;;;;;;456635;260;1481;-72
2021/10/05 00:23:29;;;;;;;;;;;24.90;43.60;;;;;;456741;260;1065;-72
2021/10/05 00:25:31;;;;;;;;;;;25.00;43.50;;;;;;456582;261;1195;-72
2021/10/05 00:27:32;;;;;;;;;;;24.90;43.60;;;;;;456764;260;1263;-72
2021/10/05 00:29:33;;;;;;;;;;;24.90;43.60;;;;;;456764;260;2207;-72
2021/10/05 00:31:35;;;;;;;;;;;24.90;43.50;;;;;;456668;260;1165;-72
2021/10/05 00:33:36;;;;;;;;;;;24.90;43.60;;;;;;456702;260;1069;-72
2021/10/05 00:35:37;;;;;;;;;;;24.90;43.80;;;;;;456761;260;1253;-72
2021/10/05 00:37:39;;;;;;;;;;;24.30;44.20;;;;;;456694;260;1088;-73
2021/10/05 00:39:40;;;;;;;;;;;23.60;46.00;;;;;;456818;260;961;-72
2021/10/05 00:41:41;;;;;;;;;;;23.90;45.80;;;;;;456609;261;1304;-72
2021/10/05 00:43:43;;;;;;;;;;;23.70;45.90;;;;;;456754;260;954;-72
2021/10/05 00:45:44;;;;;;;;;;;23.80;46.00;;;;;;456661;261;1220;-72
2021/10/05 00:47:45;;;;;;;;;;;23.70;46.20;;;;;;456665;261;1189;-72
2021/10/05 00:49:47;;;;;;;;;;;23.70;46.20;;;;;;456736;260;2194;-72
2021/10/05 00:51:48;;;;;;;;;;;23.50;46.60;;;;;;456645;260;1253;-72
2021/10/05 00:53:49;;;;;;;;;;;23.60;46.60;;;;;;456647;260;1166;-72
2021/10/05 00:55:51;;;;;;;;;;;23.50;46.70;;;;;;456628;260;1342;-72
2021/10/05 00:57:52;;;;;;;;;;;23.50;46.70;;;;;;456676;260;1199;-72
2021/10/05 00:59:54;;;;;;;;;;;23.60;46.50;;;;;;456645;260;930;-72
2021/10/05 01:01:55;;;;;;;;;;;23.40;46.90;;;;;;456526;260;1512;-72
2021/10/05 01:03:56;;;;;;;;;;;23.40;47.00;;;;;;456795;260;1130;-72
2021/10/05 01:05:57;;;;;;;;;;;23.50;47.00;;;;;;456754;260;1344;-72
2021/10/05 01:07:59;;;;;;;;;;;23.60;46.70;;;;;;456667;260;1310;-72
2021/10/05 01:10:00;;;;;;;;;;;23.50;46.80;;;;;;456695;260;2131;-72
2021/10/05 01:12:01;;;;;;;;;;;23.40;46.90;;;;;;456684;260;1214;-72
2021/10/05 01:14:03;;;;;;;;;;;23.40;47.20;;;;;;456790;260;967;-72
2021/10/05 01:16:04;;;;;;;;;;;23.40;47.10;;;;;;456696;259;1245;-72
2021/10/05 01:18:07;;;;;;;;;;;23.40;47.00;;;;;;456711;260;1032;-72
2021/10/05 01:20:09;;;;;;;;;;;23.40;47.10;;;;;;456710;261;1051;-72
2021/10/05 01:22:10;;;;;;;;;;;23.30;47.20;;;;;;456593;261;1053;-72
2021/10/05 01:24:11;;;;;;;;;;;23.20;47.50;;;;;;456704;260;1114;-72
2021/10/05 01:26:13;;;;;;;;;;;23.20;47.70;;;;;;456659;258;1162;-72
2021/10/05 01:28:14;;;;;;;;;;;23.30;47.50;;;;;;456688;260;1004;-72
2021/10/05 01:30:16;;;;;;;;;;;23.40;47.20;;;;;;456695;261;2203;-73
2021/10/05 01:32:17;;;;;;;;;;;23.30;47.30;;;;;;456758;260;1166;-72
2021/10/05 01:34:19;;;;;;;;;;;23.10;47.70;;;;;;456755;260;999;-72
2021/10/05 01:36:20;;;;;;;;;;;23.20;47.60;;;;;;456715;260;1449;-72
2021/10/05 01:38:21;;;;;;;;;;;23.30;47.70;;;;;;456794;260;1010;-72
2021/10/05 01:40:23;;;;;;;;;;;23.30;47.60;;;;;;456779;260;1211;-72
2021/10/05 01:42:24;;;;;;;;;;;23.30;47.80;;;;;;456623;261;1509;-72
2021/10/05 01:44:25;;;;;;;;;;;23.30;47.50;;;;;;456771;261;988;-72
2021/10/05 01:46:27;;;;;;;;;;;23.20;47.70;;;;;;456708;259;1268;-72
2021/10/05 01:48:28;;;;;;;;;;;23.40;47.40;;;;;;456782;260;974;-72
2021/10/05 01:50:29;;;;;;;;;;;23.30;47.60;;;;;;456673;260;2206;-72
2021/10/05 01:52:31;;;;;;;;;;;23.40;47.30;;;;;;456733;260;1108;-72
2021/10/05 01:54:32;;;;;;;;;;;23.30;47.60;;;;;;456619;260;1073;-72
2021/10/05 01:56:33;;;;;;;;;;;23.20;47.70;;;;;;456698;259;1226;-72
2021/10/05 01:58:35;;;;;;;;;;;23.20;47.80;;;;;;456689;260;1139;-72
2021/10/05 02:00:36;;;;;;;;;;;23.20;47.80;;;;;;456629;260;1004;-72
2021/10/05 02:02:37;;;;;;;;;;;23.10;48.00;;;;;;456629;260;1143;-72
2021/10/05 02:04:40;;;;;;;;;;;23.10;48.10;;;;;;456764;260;1132;-73
2021/10/05 02:06:40;;;;;;;;;;;23.10;48.10;;;;;;456774;260;1517;-72
2021/10/05 02:08:41;;;;;;;;;;;23.30;47.90;;;;;;456889;259;965;-72
2021/10/05 02:10:43;;;;;;;;;;;23.20;47.70;;;;;;456497;258;2155;-72
2021/10/05 02:12:44;;;;;;;;;;;23.20;48.00;;;;;;456653;260;1242;-72
2021/10/05 02:14:45;;;;;;;;;;;23.20;48.10;;;;;;456695;261;1313;-72
2021/10/05 02:16:47;;;;;;;;;;;23.20;48.00;;;;;;456707;260;1348;-72
2021/10/05 02:18:48;;;;;;;;;;;23.30;47.90;;;;;;456762;260;955;-72
2021/10/05 02:20:49;;;;;;;;;;;23.20;47.80;;;;;;456658;260;995;-73
2021/10/05 02:22:51;;;;;;;;;;;23.20;47.90;;;;;;456667;261;1085;-72
2021/10/05 02:24:52;;;;;;;;;;;23.20;48.00;;;;;;456769;260;1220;-72
2021/10/05 02:26:53;;;;;;;;;;;23.20;48.00;;;;;;456741;260;1249;-72
2021/10/05 02:28:55;;;;;;;;;;;23.20;48.10;;;;;;456767;260;1042;-72
2021/10/05 02:30:56;;;;;;;;;;;23.20;48.10;;;;;;456616;260;2194;-72
2021/10/05 02:32:57;;;;;;;;;;;23.30;47.90;;;;;;456729;260;1122;-72
2021/10/05 02:34:59;;;;;;;;;;;23.50;47.60;;;;;;456748;260;962;-72
2021/10/05 02:37:00;;;;;;;;;;;23.90;46.60;;;;;;456691;259;1194;-72
2021/10/05 02:39:01;;;;;;;;;;;24.20;46.00;;;;;;456703;260;992;-72
2021/10/05 02:41:03;;;;;;;;;;;24.10;45.90;;;;;;456634;260;1130;-72
2021/10/05 02:43:04;;;;;;;;;;;24.30;45.70;;;;;;456656;261;1497;-72
2021/10/05 02:45:05;;;;;;;;;;;24.40;45.40;;;;;;456786;260;1033;-72
2021/10/05 02:47:07;;;;;;;;;;;24.50;45.10;;;;;;456562;261;1233;-72
2021/10/05 02:49:08;;;;;;;;;;;24.50;45.00;;;;;;456769;260;1147;-72
2021/10/05 02:51:09;;;;;;;;;;;24.60;45.00;;;;;;456660;258;2206;-72
2021/10/05 02:53:11;;;;;;;;;;;24.60;44.90;;;;;;456777;260;1116;-72
2021/10/05 02:55:12;;;;;;;;;;;24.70;44.80;;;;;;456771;260;1100;-72
2021/10/05 02:57:13;;;;;;;;;;;24.70;44.70;;;;;;456640;260;1378;-72
2021/10/05 02:59:16;;;;;;;;;;;24.80;44.50;;;;;;456757;260;1059;-72
2021/10/05 03:01:16;;;;;;;;;;;24.80;44.50;;;;;;456493;261;1421;-73
2021/10/05 03:03:17;;;;;;;;;;;24.80;44.40;;;;;;456784;260;1082;-73
2021/10/05 03:05:19;;;;;;;;;;;24.80;44.50;;;;;;456805;260;1117;-72
2021/10/05 03:07:20;;;;;;;;;;;24.80;44.60;;;;;;456759;259;1087;-72
2021/10/05 03:09:21;;;;;;;;;;;24.80;44.50;;;;;;456387;261;1112;-73
2021/10/05 03:11:23;;;;;;;;;;;24.80;44.60;;;;;;456656;260;2135;-72
2021/10/05 03:13:24;;;;;;;;;;;24.80;44.60;;;;;;456894;259;1151;-72
2021/10/05 03:15:25;;;;;;;;;;;24.90;44.50;;;;;;456751;260;1206;-73
2021/10/05 03:17:27;;;;;;;;;;;24.90;44.50;;;;;;456729;260;1126;-72
2021/10/05 03:19:28;;;;;;;;;;;24.90;44.40;;;;;;456777;260;1195;-72
2021/10/05 03:21:29;;;;;;;;;;;24.90;44.20;;;;;;456618;261;1223;-72
2021/10/05 03:23:30;;;;;;;;;;;24.90;44.30;;;;;;456681;261;973;-72
2021/10/05 03:25:32;;;;;;;;;;;24.90;44.30;;;;;;456725;259;1230;-72
2021/10/05 03:27:35;;;;;;;;;;;24.90;44.30;;;;;;456676;260;1183;-72
2021/10/05 03:29:35;;;;;;;;;;;24.90;44.30;;;;;;456709;260;1409;-72
2021/10/05 03:31:36;;;;;;;;;;;24.90;44.30;;;;;;456594;257;2144;-72
2021/10/05 03:33:37;;;;;;;;;;;24.90;44.30;;;;;;456692;260;999;-72
2021/10/05 03:35:39;;;;;;;;;;;24.90;44.40;;;;;;456669;260;1069;-72
2021/10/05 03:37:40;;;;;;;;;;;25.00;44.20;;;;;;456690;260;1020;-72
2021/10/05 03:39:41;;;;;;;;;;;24.90;44.20;;;;;;456648;261;975;-72
2021/10/05 03:41:43;;;;;;;;;;;24.90;44.30;;;;;;456563;260;989;-72
2021/10/05 03:43:44;;;;;;;;;;;24.90;44.30;;;;;;456695;260;1161;-72
2021/10/05 03:45:45;;;;;;;;;;;24.90;44.40;;;;;;456715;260;977;-73
2021/10/05 03:47:47;;;;;;;;;;;24.90;44.40;;;;;;456673;260;994;-73
2021/10/05 03:49:48;;;;;;;;;;;24.90;44.40;;;;;;456686;260;984;-72
2021/10/05 03:51:49;;;;;;;;;;;24.90;44.40;;;;;;456629;259;2203;-72
2021/10/05 03:53:51;;;;;;;;;;;24.90;44.40;;;;;;456782;260;955;-72
2021/10/05 03:55:52;;;;;;;;;;;24.90;44.40;;;;;;456735;260;1047;-72
2021/10/05 03:57:53;;;;;;;;;;;24.80;44.40;;;;;;456747;261;1168;-72
2021/10/05 03:59:55;;;;;;;;;;;24.80;44.60;;;;;;456736;260;1288;-72
2021/10/05 04:01:56;;;;;;;;;;;24.90;44.40;;;;;;456487;261;1051;-72
2021/10/05 04:03:57;;;;;;;;;;;25.00;44.40;;;;;;456631;260;1096;-72
2021/10/05 04:05:59;;;;;;;;;;;24.90;44.50;;;;;;456599;260;1268;-72
2021/10/05 04:08:00;;;;;;;;;;;24.90;44.40;;;;;;456614;260;1053;-72
2021/10/05 04:10:01;;;;;;;;;;;25.00;44.40;;;;;;456602;260;2203;-72
2021/10/05 04:12:03;;;;;;;;;;;24.90;44.30;;;;;;456562;260;1097;-72
2021/10/05 04:14:04;;;;;;;;;;;24.90;44.40;;;;;;456702;260;1227;-72
2021/10/05 04:16:05;;;;;;;;;;;24.90;44.30;;;;;;456658;260;1231;-72
2021/10/05 04:18:07;;;;;;;;;;;25.00;44.40;;;;;;456541;261;1069;-72
2021/10/05 04:20:08;;;;;;;;;;;25.00;44.30;;;;;;456506;260;1032;-72
2021/10/05 04:22:09;;;;;;;;;;;24.90;44.40;;;;;;456421;260;1166;-72
2021/10/05 04:24:11;;;;;;;;;;;25.00;44.20;;;;;;456497;260;1196;-72
2021/10/05 04:26:12;;;;;;;;;;;24.90;44.30;;;;;;456487;260;1350;-72
2021/10/05 04:28:13;;;;;;;;;;;24.90;44.30;;;;;;456620;260;1068;-72
2021/10/05 04:30:15;;;;;;;;;;;25.00;44.20;;;;;;456553;260;2183;-72
2021/10/05 04:32:16;;;;;;;;;;;25.00;44.30;;;;;;456475;260;1109;-72
2021/10/05 04:34:17;;;;;;;;;;;25.00;44.30;;;;;;456471;261;988;-72
2021/10/05 04:36:19;;;;;;;;;;;25.00;44.30;;;;;;456494;258;1318;-72
2021/10/05 04:38:20;;;;;;;;;;;25.00;44.30;;;;;;456609;259;1070;-72
2021/10/05 04:40:21;;;;;;;;;;;24.90;44.40;;;;;;456533;260;965;-72
2021/10/05 04:42:24;;;;;;;;;;;25.00;44.30;;;;;;456428;259;1215;-72
2021/10/05 04:44:24;;;;;;;;;;;24.90;44.40;;;;;;456444;260;1530;-71
2021/10/05 04:46:25;;;;;;;;;;;24.90;44.40;;;;;;456398;260;1242;-72
2021/10/05 04:48:27;;;;;;;;;;;24.90;44.50;;;;;;456452;260;1145;-72
2021/10/05 04:50:28;;;;;;;;;;;25.00;44.40;;;;;;456381;260;2128;-71
2021/10/05 04:52:29;;;;;;;;;;;24.90;44.40;;;;;;456429;260;1164;-72
2021/10/05 04:54:32;;;;;;;;;;;24.90;44.50;;;;;;456541;260;1008;-72
2021/10/05 04:56:32;;;;;;;;;;;24.90;44.40;;;;;;456507;261;1342;-72
2021/10/05 04:58:33;;;;;;;;;;;24.90;44.40;;;;;;456467;261;1119;-72
2021/10/05 05:00:34;;;;;;;;;;;24.90;44.40;;;;;;456435;260;1192;-72
2021/10/05 05:02:36;;;;;;;;;;;24.90;44.30;;;;;;456370;260;1179;-72
2021/10/05 05:04:37;;;;;;;;;;;24.90;44.50;;;;;;456371;260;1000;-72
2021/10/05 05:06:38;;;;;;;;;;;24.90;44.50;;;;;;456393;260;1272;-72
2021/10/05 05:08:40;;;;;;;;;;;25.00;44.50;;;;;;456479;260;998;-72
2021/10/05 05:10:41;;;;;;;;;;;25.00;44.50;;;;;;456432;260;2175;-72
2021/10/05 05:12:42;;;;;;;;;;;24.90;44.30;;;;;;456495;259;1301;-72
2021/10/05 05:14:44;;;;;;;;;;;24.90;44.40;;;;;;456413;260;1183;-72
2021/10/05 05:16:47;;;;;;;;;;;24.90;44.50;;;;;;456345;260;1184;-72
2021/10/05 05:18:46;;;;;;;;;;;24.90;44.50;;;;;;456435;260;1376;-72
2021/10/05 05:20:48;;;;;;;;;;;24.90;44.50;;;;;;456315;260;1098;-72
2021/10/05 05:22:49;;;;;;;;;;;24.90;44.50;;;;;;456395;260;1201;-72
2021/10/05 05:24:50;;;;;;;;;;;24.90;44.50;;;;;;456380;260;1010;-72
2021/10/05 05:26:52;;;;;;;;;;;24.90;44.50;;;;;;456310;260;1216;-72
2021/10/05 05:28:53;;;;;;;;;;;24.90;44.60;;;;;;456409;260;1124;-72
2021/10/05 05:30:54;;;;;;;;;;;24.90;44.60;;;;;;456283;260;2175;-72
2021/10/05 05:32:56;;;;;;;;;;;24.90;44.60;;;;;;456382;260;1193;-73
2021/10/05 05:34:57;;;;;;;;;;;24.90;44.60;;;;;;456321;261;1105;-72
2021/10/05 05:36:58;;;;;;;;;;;24.90;44.50;;;;;;456291;260;1342;-72
2021/10/05 05:39:00;;;;;;;;;;;24.90;44.60;;;;;;456253;260;1098;-72
2021/10/05 05:41:01;;;;;;;;;;;24.90;44.50;;;;;;456103;261;1230;-72
2021/10/05 05:43:02;;;;;;;;;;;24.90;44.50;;;;;;456281;260;1060;-72
2021/10/05 05:45:04;;;;;;;;;;;24.90;44.60;;;;;;456207;260;1218;-72
2021/10/05 05:47:05;;;;;;;;;;;24.90;44.60;;;;;;456136;260;1220;-72
2021/10/05 05:49:06;;;;;;;;;;;24.90;44.60;;;;;;456171;260;1076;-72
2021/10/05 05:51:08;;;;;;;;;;;24.80;44.60;;;;;;455972;261;2151;-73
2021/10/05 05:53:09;;;;;;;;;;;24.90;44.50;;;;;;456333;260;1186;-72
2021/10/05 05:55:15;;;;;;;;;;;24.90;44.60;;;;;;456237;260;1175;-72
2021/10/05 05:57:13;;;;;;;;;;;24.90;44.60;;;;;;456036;260;1450;-72
2021/10/05 05:59:14;;;;;;;;;;;24.90;44.60;;;;;;456048;260;995;-72
2021/10/05 06:01:16;;;;;;;;;;;24.90;44.50;;;;;;456026;260;1274;-72
2021/10/05 06:03:17;;;;;;;;;;;24.80;44.60;;;;;;456231;260;1109;-72
2021/10/05 06:05:18;;;;;;;;;;;24.80;44.70;;;;;;456272;261;981;-72
2021/10/05 06:07:20;;;;;;;;;;;24.90;44.70;;;;;;456099;260;1093;-72
2021/10/05 06:09:21;;;;;;;;;;;24.90;44.40;;;;;;455763;261;1083;-72
2021/10/05 06:11:23;;;;;;;;;;;24.90;44.50;;;;;;455992;260;2202;-72
2021/10/05 06:13:24;;;;;;;;;;;24.80;44.90;;;;;;455901;261;1115;-72
2021/10/05 06:15:25;;;;;;;;;;;24.70;44.90;;;;;;456025;259;1195;-72
2021/10/05 06:17:26;;;;;;;;;;;24.80;44.90;;;;;;456149;260;1374;-72
2021/10/05 06:19:28;;;;;;;;;;;24.70;44.80;;;;;;456246;260;1128;-72
2021/10/05 06:21:29;;;;;;;;;;;24.70;45.00;;;;;;456114;260;1072;-72
2021/10/05 06:23:30;;;;;;;;;;;24.80;44.90;;;;;;455986;259;1266;-72
2021/10/05 06:25:32;;;;;;;;;;;24.80;44.80;;;;;;456076;260;1084;-72
2021/10/05 06:27:33;;;;;;;;;;;24.70;44.90;;;;;;456117;260;1352;-72
2021/10/05 06:29:34;;;;;;;;;;;24.60;45.00;;;;;;456068;261;1007;-72
2021/10/05 06:31:36;;;;;;;;;;;24.70;45.00;;;;;;456031;260;2217;-72
2021/10/05 06:33:37;;;;;;;;;;;24.70;44.80;;;;;;455920;260;1100;-72
2021/10/05 06:35:38;;;;;;;;;;;24.60;45.00;;;;;;455914;260;1140;-72
2021/10/05 06:37:40;;;;;;;;;;;24.70;45.00;;;;;;455844;261;1192;-72
2021/10/05 06:39:41;;;;;;;;;;;24.70;44.90;;;;;;455815;260;1425;-72
2021/10/05 06:41:42;;;;;;;;;;;24.70;45.00;;;;;;455818;261;1136;-71
2021/10/05 06:43:44;;;;;;;;;;;24.70;45.00;;;;;;455897;259;1042;-72
2021/10/05 06:45:45;;;;;;;;;;;24.70;45.00;;;;;;455601;260;1167;-72
2021/10/05 06:47:47;;;;;;;;;;;24.80;44.90;;;;;;455947;259;1292;-72
2021/10/05 06:49:48;;;;;;;;;;;24.70;45.10;;;;;;455884;260;1045;-71
2021/10/05 06:51:49;;;;;;;;;;;24.80;44.80;;;;;;455919;260;2135;-72
2021/10/05 06:53:51;;;;;;;;;;;24.80;44.80;;;;;;456096;260;1154;-72
2021/10/05 06:55:52;;;;;;;;;;;24.80;44.90;;;;;;455970;260;1184;-72
2021/10/05 06:57:53;;;;;;;;;;;24.50;45.10;;;;;;456018;260;1187;-72
2021/10/05 06:59:55;;;;;;;;;;;24.60;45.10;;;;;;455548;260;1234;-72
2021/10/05 07:01:56;;;;;;;;;;;24.60;45.00;;;;;;455605;260;1198;-72
2021/10/05 07:03:59;;;;;;;;;;;24.70;45.10;;;;;;455707;260;1084;-72
2021/10/05 07:05:59;;;;;;;;;;;24.70;45.10;;;;;;455771;260;1423;-72
2021/10/05 07:08:01;;;;;;;;;;;24.70;45.00;;;;;;455697;260;1169;-72
2021/10/05 07:10:02;;;;;;;;;;;24.70;44.90;;;;;;455672;260;1025;-71
2021/10/05 07:12:03;;;;;;;;;;;24.70;44.90;;;;;;455795;260;2225;-73
2021/10/05 07:14:05;;;;;;;;;;;24.60;45.00;;;;;;455933;260;1091;-72
2021/10/05 07:16:06;;;;;;;;;;;24.60;44.90;;;;;;455733;261;1243;-72
2021/10/05 07:18:08;;;;;;;;;;;24.60;45.00;;;;;;455709;260;1194;-72
2021/10/05 07:20:09;;;;;;;;;;;24.70;44.90;;;;;;455637;260;1462;-72
2021/10/05 07:22:10;;;;;;;;;;;24.60;45.00;;;;;;455672;260;1144;-72
2021/10/05 07:24:11;;;;;;;;;;;24.70;45.00;;;;;;455602;260;1112;-72
2021/10/05 07:26:13;;;;;;;;;;;24.70;45.00;;;;;;455476;261;1446;-72
2021/10/05 07:28:14;;;;;;;;;;;24.80;44.90;;;;;;455731;260;1121;-72
2021/10/05 07:30:15;;;;;;;;;;;24.80;44.90;;;;;;455688;260;1075;-72
2021/10/05 07:32:17;;;;;;;;;;;24.80;44.90;;;;;;455769;259;2210;-72
2021/10/05 07:34:18;;;;;;;;;;;24.80;44.80;;;;;;455892;260;1024;-72
2021/10/05 07:36:20;;;;;;;;;;;24.80;44.90;;;;;;455750;260;1236;-72
2021/10/05 07:38:21;;;;;;;;;;;24.80;44.90;;;;;;455775;260;1400;-72
2021/10/05 07:40:22;;;;;;;;;;;24.80;44.80;;;;;;455066;261;1061;-72
2021/10/05 07:42:23;;;;;;;;;;;24.80;44.80;;;;;;455574;260;1125;-72
2021/10/05 07:44:25;;;;;;;;;;;24.90;44.80;;;;;;455577;260;1342;-72
2021/10/05 07:46:26;;;;;;;;;;;24.80;44.80;;;;;;456238;259;1281;-72
2021/10/05 07:48:27;;;;;;;;;;;24.90;44.80;;;;;;455932;260;1138;-72
2021/10/05 07:50:29;;;;;;;;;;;24.90;44.80;;;;;;455801;260;1054;-72
2021/10/05 07:52:30;;;;;;;;;;;24.80;44.80;;;;;;455634;261;2198;-72
2021/10/05 07:54:31;;;;;;;;;;;24.80;45.00;;;;;;455285;260;1082;-72
2021/10/05 07:56:32;;;;;;;;;;;24.80;45.00;;;;;;455525;260;1471;-72
2021/10/05 07:58:36;;;;;;;;;;;24.80;45.00;;;;;;455602;260;1150;-72
2021/10/05 08:00:36;;;;;;;;;;;24.80;44.80;;;;;;456086;260;1342;-72
2021/10/05 08:02:37;;;;;;;;;;;24.80;44.80;;;;;;456265;260;1360;-72
2021/10/05 08:04:38;;;;;;;;;;;24.90;44.80;;;;;;455997;261;1192;-72
2021/10/05 08:06:39;;;;;;;;;;;24.90;44.80;;;;;;456550;260;1185;-72
2021/10/05 08:08:41;;;;;;;;;;;24.80;44.90;;;;;;455767;261;1039;-72
2021/10/05 08:10:42;;;;;;;;;;;24.80;45.00;;;;;;455638;260;1529;-72
2021/10/05 08:12:43;;;;;;;;;;;24.90;44.90;;;;;;455415;260;2202;-72
2021/10/05 08:14:45;;;;;;;;;;;24.80;44.90;;;;;;454918;261;1003;-72
2021/10/05 08:16:47;;;;;;;;;;;24.90;44.80;;;;;;455219;260;1134;-72
2021/10/05 08:18:47;;;;;;;;;;;24.90;44.80;;;;;;455185;260;1474;-72
2021/10/05 08:20:49;;;;;;;;;;;24.90;44.80;;;;;;455388;259;1378;-72
2021/10/05 08:22:50;;;;;;;;;;;24.90;44.80;;;;;;455400;260;1063;-72
2021/10/05 08:24:51;;;;;;;;;;;24.90;44.80;;;;;;455531;261;1220;-72
2021/10/05 08:26:53;;;;;;;;;;;24.90;44.80;;;;;;455462;260;1407;-72
2021/10/05 08:28:54;;;;;;;;;;;24.80;44.90;;;;;;455627;260;1089;-72
2021/10/05 08:30:55;;;;;;;;;;;24.90;44.70;;;;;;455594;259;1282;-72
2021/10/05 08:32:57;;;;;;;;;;;24.90;44.90;;;;;;455793;261;2203;-72
2021/10/05 08:34:58;;;;;;;;;;;24.80;44.90;;;;;;455853;260;1017;-72
2021/10/05 08:36:59;;;;;;;;;;;24.80;45.00;;;;;;455843;259;1328;-72
2021/10/05 08:39:01;;;;;;;;;;;24.80;44.90;;;;;;455438;260;1138;-72
2021/10/05 08:41:02;;;;;;;;;;;24.80;44.90;;;;;;455432;259;1211;-72
2021/10/05 08:43:03;;;;;;;;;;;24.90;44.90;;;;;;455481;260;1106;-72
2021/10/05 08:45:05;;;;;;;;;;;24.90;44.70;;;;;;455480;261;1110;-72
2021/10/05 08:47:06;;;;;;;;;;;24.90;44.90;;;;;;455604;260;1294;-72
2021/10/05 08:49:07;;;;;;;;;;;24.90;44.90;;;;;;455825;260;1110;-72
2021/10/05 08:51:08;;;;;;;;;;;24.80;45.10;;;;;;455810;260;1341;-72
2021/10/05 08:53:10;;;;;;;;;;;24.80;45.00;;;;;;455905;261;2207;-72
2021/10/05 08:55:11;;;;;;;;;;;24.90;44.90;;;;;;455505;261;1009;-72
2021/10/05 08:57:13;;;;;;;;;;;24.90;44.90;;;;;;456013;260;1348;-72
2021/10/05 08:59:14;;;;;;;;;;;24.80;45.00;;;;;;455746;259;1089;-72
2021/10/05 09:01:15;;;;;;;;;;;24.80;45.20;;;;;;455670;260;1373;-72
2021/10/05 09:03:17;;;;;;;;;;;24.80;45.00;;;;;;455665;260;1172;-72
2021/10/05 09:05:18;;;;;;;;;;;24.80;45.00;;;;;;455601;261;977;-72
2021/10/05 09:07:20;;;;;;;;;;;24.80;45.10;;;;;;456102;260;1162;-72
2021/10/05 09:09:21;;;;;;;;;;;24.90;44.90;;;;;;456010;261;995;-72
2021/10/05 09:11:24;;;;;;;;;;;24.90;44.80;;;;;;455843;260;1224;-72
2021/10/05 09:13:25;;;;;;;;;;;24.90;44.80;;;;;;455720;260;2206;-72
2021/10/05 09:15:26;;;;;;;;;;;24.90;44.80;;;;;;455708;261;1106;-72
2021/10/05 09:17:27;;;;;;;;;;;24.80;45.10;;;;;;456287;261;1039;-72
2021/10/05 09:19:29;;;;;;;;;;;24.80;45.10;;;;;;455814;260;2068;-72
2021/10/05 09:21:30;;;;;;;;;;;24.80;45.20;;;;;;455994;260;1191;-72
2021/10/05 09:23:31;;;;;;;;;;;24.90;45.10;;;;;;455885;260;1054;-72
2021/10/05 09:25:32;;;;;;;;;;;24.90;45.10;;;;;;455673;261;1335;-72
2021/10/05 09:27:34;;;;;;;;;;;24.90;45.10;;;;;;455715;261;1101;-72
2021/10/05 09:29:35;;;;;;;;;;;25.00;45.20;;;;;;455548;260;1073;-72
2021/10/05 09:31:36;;;;;;;;;;;24.90;45.10;;;;;;455510;260;1190;-73
2021/10/05 09:33:38;;;;;;;;;;;24.90;45.30;;;;;;455703;260;2144;-72
2021/10/05 09:35:39;;;;;;;;;;;24.90;45.20;;;;;;455636;261;1339;-72
2021/10/05 09:37:41;;;;;;;;;;;24.90;45.30;;;;;;455642;261;1138;-72
2021/10/05 09:39:42;;;;;;;;;;;24.90;45.30;;;;;;455705;260;1080;-72
2021/10/05 09:41:43;;;;;;;;;;;24.90;45.20;;;;;;455631;261;1154;-72
2021/10/05 09:43:45;;;;;;;;;;;24.90;45.30;;;;;;455919;260;1108;-72
2021/10/05 09:45:46;;;;;;;;;;;24.90;45.30;;;;;;455803;260;1185;-72
2021/10/05 09:47:47;;;;;;;;;;;24.90;45.30;;;;;;455781;260;1121;-72
2021/10/05 09:49:49;;;;;;;;;;;25.00;45.20;;;;;;455678;260;1202;-72
2021/10/05 09:51:50;;;;;;;;;;;25.00;45.20;;;;;;455637;260;1215;-72
2021/10/05 09:53:51;;;;;;;;;;;25.00;45.30;;;;;;455661;260;2120;-72
2021/10/05 09:55:53;;;;;;;;;;;24.90;45.50;;;;;;455638;260;1183;-72
2021/10/05 09:57:54;;;;;;;;;;;25.10;45.30;;;;;;455773;261;1105;-72
2021/10/05 09:59:55;;;;;;;;;;;24.90;45.40;;;;;;455489;261;1059;-72
2021/10/05 10:01:57;;;;;;;;;;;24.90;45.50;;;;;;455703;260;1237;-72
2021/10/05 10:03:58;;;;;;;;;;;25.00;45.40;;;;;;455669;260;1203;-72
2021/10/05 10:05:59;;;;;;;;;;;24.90;45.50;;;;;;455616;258;1168;-72
2021/10/05 10:08:01;;;;;;;;;;;24.90;45.50;;;;;;456023;261;1068;-72
2021/10/05 10:10:02;;;;;;;;;;;25.00;45.50;;;;;;455771;260;993;-72
2021/10/05 10:12:03;;;;;;;;;;;24.90;45.60;;;;;;455969;260;2436;-72
2021/10/05 10:14:05;;;;;;;;;;;25.00;45.40;;;;;;455833;260;1072;-72
2021/10/05 10:16:06;;;;;;;;;;;24.90;45.40;;;;;;455706;261;1289;-72
2021/10/05 10:18:07;;;;;;;;;;;25.00;45.40;;;;;;455730;260;1124;-72
2021/10/05 10:20:10;;;;;;;;;;;25.00;45.40;;;;;;455633;260;1219;-72
2021/10/05 10:22:11;;;;;;;;;;;25.00;45.50;;;;;;455787;260;1322;-72
2021/10/05 10:24:14;;;;;;;;;;;24.90;45.50;;;;;;455835;260;1326;-72
2021/10/05 10:26:15;;;;;;;;;;;24.90;45.60;;;;;;455783;260;1420;-72
2021/10/05 10:28:16;;;;;;;;;;;24.90;45.80;;;;;;455880;260;1253;-72
2021/10/05 10:30:18;;;;;;;;;;;24.90;45.80;;;;;;455694;260;984;-72
2021/10/05 10:32:19;;;;;;;;;;;24.90;45.80;;;;;;455878;260;2212;-72
2021/10/05 10:34:20;;;;;;;;;;;24.90;46.00;;;;;;455916;260;1259;-72
2021/10/05 10:36:22;;;;;;;;;;;25.00;45.80;;;;;;455751;260;1283;-72
2021/10/05 10:38:23;;;;;;;;;;;24.90;45.90;;;;;;455742;260;1127;-72
2021/10/05 10:40:24;;;;;;;;;;;25.10;45.90;;;;;;455587;260;1221;-72
2021/10/05 10:42:26;;;;;;;;;;;25.10;45.70;;;;;;455583;260;1174;-72
2021/10/05 10:44:28;;;;;;;;;;;25.10;45.90;;;;;;455594;261;1071;-71
2021/10/05 10:46:29;;;;;;;;;;;25.00;45.80;;;;;;455627;259;1149;-72
2021/10/05 10:48:30;;;;;;;;;;;25.00;45.90;;;;;;455853;260;1086;-72
2021/10/05 10:50:32;;;;;;;;;;;25.00;46.00;;;;;;455800;260;1217;-72
2021/10/05 10:52:33;;;;;;;;;;;24.90;46.00;;;;;;456109;260;2229;-72
2021/10/05 10:54:35;;;;;;;;;;;24.90;46.10;;;;;;455728;260;1054;-72
2021/10/05 10:56:36;;;;;;;;;;;24.90;46.10;;;;;;455618;261;1369;-72
2021/10/05 10:58:40;;;;;;;;;;;24.90;46.10;;;;;;455850;260;1328;-72
2021/10/05 11:00:40;;;;;;;;;;;24.90;46.00;;;;;;455656;260;1477;-72
2021/10/05 11:02:41;;;;;;;;;;;24.90;46.00;;;;;;455814;260;1229;-72
2021/10/05 11:04:42;;;;;;;;;;;24.90;45.90;;;;;;455818;260;1183;-72
2021/10/05 11:06:43;;;;;;;;;;;24.90;45.80;;;;;;455781;260;1163;-72
2021/10/05 11:08:45;;;;;;;;;;;24.90;45.90;;;;;;455806;260;1064;-73
2021/10/05 11:10:46;;;;;;;;;;;24.90;46.00;;;;;;455833;261;1143;-72
2021/10/05 11:12:48;;;;;;;;;;;24.90;45.90;;;;;;455984;260;2207;-72
2021/10/05 11:14:49;;;;;;;;;;;24.90;45.90;;;;;;455822;260;1009;-72
2021/10/05 11:16:50;;;;;;;;;;;24.90;45.80;;;;;;455768;260;1287;-72
2021/10/05 11:18:52;;;;;;;;;;;24.90;45.80;;;;;;455801;260;1092;-72
2021/10/05 11:20:53;;;;;;;;;;;24.90;45.80;;;;;;455697;260;1212;-72
2021/10/05 11:22:54;;;;;;;;;;;24.90;45.90;;;;;;455906;260;1058;-72
2021/10/05 11:24:57;;;;;;;;;;;24.90;45.80;;;;;;455767;261;1109;-72
2021/10/05 11:26:57;;;;;;;;;;;24.90;45.70;;;;;;455759;260;1442;-72
2021/10/05 11:29:01;;;;;;;;;;;24.90;45.60;;;;;;455828;260;1216;-72
2021/10/05 11:31:00;;;;;;;;;;;24.90;45.60;;;;;;455451;260;1456;-72
2021/10/05 11:33:03;;;;;;;;;;;24.90;45.50;;;;;;455575;260;2234;-72
2021/10/05 11:35:03;;;;;;;;;;;24.90;45.60;;;;;;455732;260;1540;-72
2021/10/05 11:37:04;;;;;;;;;;;24.90;45.50;;;;;;455683;260;1129;-72
2021/10/05 11:39:06;;;;;;;;;;;24.90;45.60;;;;;;455702;260;1078;-72
2021/10/05 11:41:07;;;;;;;;;;;24.90;45.40;;;;;;455686;260;1164;-72
2021/10/05 11:43:08;;;;;;;;;;;25.00;45.30;;;;;;455849;260;1134;-72
2021/10/05 11:45:10;;;;;;;;;;;25.00;45.30;;;;;;455789;260;1063;-72
2021/10/05 11:47:12;;;;;;;;;;;24.90;45.30;;;;;;455879;259;1177;-72
2021/10/05 11:49:12;;;;;;;;;;;24.90;45.30;;;;;;455923;261;1458;-72
2021/10/05 11:51:14;;;;;;;;;;;25.00;45.20;;;;;;455880;260;1219;-72
2021/10/05 11:53:15;;;;;;;;;;;24.90;45.20;;;;;;455921;261;2202;-72
2021/10/05 11:55:16;;;;;;;;;;;24.90;45.30;;;;;;455864;261;1068;-72
2021/10/05 11:57:18;;;;;;;;;;;24.90;45.30;;;;;;455890;260;1280;-72